Time;durP1;ratioP1;P1;durP2;ratioP2;P2;SDS_P1;SDS_P2;PMS_P1;PMS_P2;Temp;Humidity;BMP_temperature;BMP_pressure;BME280_temperature;BME280_humidity;BME280_pressure;Samples;Min_cycle;Max_cycle;Signal;HPM_P1;HPM_P2
2022/12/24 00:02:20;;;;;;;8.95;2.35;;;;;;;10.15;nan;99948.84;4989571;28;20049;-89
2022/12/24 00:04:45;;;;;;;6.18;2.10;;;;;;;10.15;nan;99951.47;4990679;28;20114;-89
2022/12/24 00:07:11;;;;;;;7.70;2.08;;;;;;;10.15;nan;99944.41;4988498;28;20129;-89
2022/12/24 00:09:36;;;;;;;9.40;2.17;;;;;;;10.13;nan;99956.94;4986924;28;20034;-89
2022/12/24 00:12:02;;;;;;;6.25;1.70;;;;;;;10.11;nan;99955.47;4988598;28;20039;-89
2022/12/24 00:14:27;;;;;;;7.22;2.08;;;;;;;10.08;nan;99953.13;4985488;28;20055;-89
2022/12/24 00:16:53;;;;;;;6.43;1.70;;;;;;;10.06;nan;99949.81;4985180;28;20177;-89
2022/12/24 00:19:18;;;;;;;4.55;1.60;;;;;;;10.08;nan;99956.63;4987836;28;20121;-89
2022/12/24 00:21:43;;;;;;;4.75;1.73;;;;;;;10.11;nan;99960.75;4985775;28;20049;-88
2022/12/24 00:24:09;;;;;;;7.28;2.40;;;;;;;10.10;nan;99951.97;4987480;28;20101;-89
2022/12/24 00:26:34;;;;;;;5.50;1.70;;;;;;;10.09;nan;99963.53;4987305;28;20092;-88
2022/12/24 00:29:00;;;;;;;7.30;2.00;;;;;;;10.05;nan;99964.84;4983330;28;20046;-87
2022/12/24 00:31:25;;;;;;;5.57;1.98;;;;;;;10.07;nan;99973.44;4990059;28;20054;-86
2022/12/24 00:33:51;;;;;;;6.47;1.60;;;;;;;10.09;nan;99975.94;4988364;28;20116;-87
2022/12/24 00:36:17;;;;;;;5.85;1.80;;;;;;;10.06;nan;99978.88;4985811;28;20057;-87
2022/12/24 00:38:43;;;;;;;5.32;1.90;;;;;;;10.07;nan;99988.47;4989107;28;20046;-87
2022/12/24 00:41:23;;;;;;;5.18;1.58;;;;;;;10.03;nan;99989.75;4991022;28;20154;-87
2022/12/24 00:44:09;;;;;;;5.22;1.75;;;;;;;10.00;nan;100004.13;4989188;28;20038;-87
2022/12/24 00:46:36;;;;;;;5.40;1.85;;;;;;;9.96;nan;100003.63;4987654;28;20046;-86
2022/12/24 00:49:02;;;;;;;7.78;1.90;;;;;;;9.91;nan;100005.09;4988680;28;20038;-87
2022/12/24 00:51:28;;;;;;;5.78;1.75;;;;;;;9.86;nan;100002.09;4987149;28;20035;-87
2022/12/24 00:53:54;;;;;;;5.43;1.90;;;;;;;9.83;nan;99995.31;4978794;28;20058;-87
2022/12/24 00:56:20;;;;;;;5.35;1.70;;;;;;;9.81;nan;100002.56;4986743;28;20188;-87
2022/12/24 00:58:46;;;;;;;6.10;1.80;;;;;;;9.74;nan;99997.09;4988237;28;20288;-86
2022/12/24 01:01:11;;;;;;;7.22;2.20;;;;;;;9.73;nan;100000.75;4986703;28;20030;-87
2022/12/24 01:03:36;;;;;;;9.02;2.65;;;;;;;9.74;nan;100007.66;4991178;28;20508;-87
2022/12/24 01:06:06;;;;;;;7.47;1.83;;;;;;;9.74;nan;100006.84;4989866;28;20045;-86
2022/12/24 01:08:32;;;;;;;6.43;1.65;;;;;;;9.73;nan;100021.03;4989370;28;20054;-87
2022/12/24 01:10:58;;;;;;;9.10;2.42;;;;;;;9.70;nan;100021.34;4990644;28;20081;-87
2022/12/24 01:13:24;;;;;;;6.55;1.88;;;;;;;9.65;nan;100031.53;4988855;28;20042;-87
2022/12/24 01:15:49;;;;;;;8.90;2.13;;;;;;;9.64;nan;100029.91;4990612;28;20064;-86
2022/12/24 01:18:15;;;;;;;8.65;1.90;;;;;;;9.66;nan;100035.84;4983056;28;20038;-86
2022/12/24 01:20:40;;;;;;;8.07;2.00;;;;;;;9.65;nan;100042.09;4988760;28;20039;-86
2022/12/24 01:23:06;;;;;;;7.80;1.90;;;;;;;9.58;nan;100044.53;4990652;28;20550;-87
2022/12/24 01:25:31;;;;;;;6.75;1.95;;;;;;;9.57;nan;100056.09;4981375;28;20161;-86
2022/12/24 01:27:56;;;;;;;8.02;1.98;;;;;;;9.56;nan;100055.28;4990228;28;20049;-87
2022/12/24 01:30:22;;;;;;;8.18;2.40;;;;;;;9.55;nan;100058.88;4985484;28;20038;-87
2022/12/24 01:32:47;;;;;;;6.10;1.70;;;;;;;9.59;nan;100069.16;5003819;28;20034;-87
2022/12/24 01:35:13;;;;;;;8.13;2.03;;;;;;;9.64;nan;100075.59;4988567;28;20049;-86
2022/12/24 01:37:40;;;;;;;8.63;2.08;;;;;;;9.70;nan;100076.78;4988764;28;20066;-87
2022/12/24 01:45:47;;;;;;;7.63;2.15;;;;;;;9.65;nan;100082.53;4989841;28;20081;-87
2022/12/24 01:48:23;;;;;;;9.55;2.00;;;;;;;9.63;nan;100094.22;4983393;28;20570;-87
2022/12/24 01:50:55;;;;;;;5.75;1.75;;;;;;;9.62;nan;100087.31;4984537;28;20409;-86
2022/12/24 01:53:20;;;;;;;6.00;2.38;;;;;;;9.54;nan;100094.19;4981855;28;20030;-86
2022/12/24 01:55:47;;;;;;;8.60;2.00;;;;;;;9.51;nan;100096.31;4988584;28;20084;-86
2022/12/24 01:58:16;;;;;;;8.05;1.63;;;;;;;9.47;nan;100109.00;4988409;28;20034;-86
2022/12/24 02:00:42;;;;;;;8.93;1.92;;;;;;;9.44;nan;100104.03;4989869;28;20027;-86
2022/12/24 02:03:08;;;;;;;6.30;1.92;;;;;;;9.41;nan;100104.31;4981910;28;20033;-86
2022/12/24 02:05:46;;;;;;;7.68;1.60;;;;;;;9.38;nan;100109.09;4980568;28;20034;-87
2022/12/24 02:08:12;;;;;;;7.25;1.88;;;;;;;9.30;nan;100117.78;4975469;28;20038;-86
2022/12/24 02:10:38;;;;;;;10.13;2.25;;;;;;;9.24;nan;100115.75;4981495;28;20436;-87
2022/12/24 02:13:04;;;;;;;5.82;1.70;;;;;;;9.18;nan;100135.66;4983718;28;20043;-86
2022/12/24 02:15:46;;;;;;;8.52;1.70;;;;;;;9.14;nan;100129.03;4986719;28;20030;-86
2022/12/24 02:18:37;;;;;;;10.75;2.10;;;;;;;9.09;nan;100133.94;4984622;28;20092;-87
2022/12/24 02:21:11;;;;;;;8.32;1.83;;;;;;;9.11;nan;100127.53;4984596;28;20039;-86
2022/12/24 02:23:59;;;;;;;7.78;1.80;;;;;;;9.12;nan;100131.81;4987199;28;20374;-86
2022/12/24 02:26:56;;;;;;;9.80;2.00;;;;;;;9.10;nan;100122.41;4988886;28;20030;-86
2022/12/24 02:29:21;;;;;;;7.32;2.08;;;;;;;9.19;nan;100124.13;4989590;28;20027;-86
2022/12/24 02:31:58;;;;;;;7.93;2.00;;;;;;;9.24;nan;100129.75;4979903;28;20039;-86
2022/12/24 02:34:46;;;;;;;6.15;1.80;;;;;;;9.29;nan;100126.66;4984724;28;20038;-86
2022/12/24 02:37:18;;;;;;;5.10;1.50;;;;;;;9.27;nan;100129.47;4979975;28;20413;-87
2022/12/24 02:39:56;;;;;;;6.80;1.60;;;;;;;9.27;nan;100131.25;5009798;28;20450;-87
2022/12/24 02:42:26;;;;;;;6.70;1.50;;;;;;;9.27;nan;100131.25;4986922;28;20579;-87
2022/12/24 02:45:02;;;;;;;5.60;1.48;;;;;;;9.30;nan;100128.34;4989822;28;20042;-86
2022/12/24 02:47:28;;;;;;;4.88;1.50;;;;;;;9.30;nan;100126.53;4990733;28;20093;-87
2022/12/24 02:49:53;;;;;;;4.82;1.80;;;;;;;9.30;nan;100128.34;4991867;28;20035;-87
2022/12/24 02:52:38;;;;;;;5.20;1.20;;;;;;;9.30;nan;100123.88;4990115;28;20048;-87
2022/12/24 02:55:16;;;;;;;6.95;1.52;;;;;;;9.31;nan;100119.44;4983426;28;20047;-86
2022/12/24 02:57:47;;;;;;;9.32;1.80;;;;;;;9.41;nan;100122.78;4994580;28;20041;-86
2022/12/24 03:00:17;;;;;;;8.38;1.83;;;;;;;9.43;nan;100117.38;4991836;28;20027;-87
2022/12/24 03:03:09;;;;;;;5.78;1.60;;;;;;;9.42;nan;100121.00;4992297;28;20075;-87
2022/12/24 03:05:45;;;;;;;5.82;1.40;;;;;;;9.39;nan;100129.22;4984757;28;20662;-87
2022/12/24 03:08:19;;;;;;;4.55;1.65;;;;;;;9.39;nan;100135.34;4985927;28;20069;-87
2022/12/24 03:10:56;;;;;;;5.93;1.67;;;;;;;9.40;nan;100152.00;4987028;28;20117;-86
2022/12/24 03:13:23;;;;;;;6.75;1.90;;;;;;;9.42;nan;100160.59;4990883;28;20050;-87
2022/12/24 03:15:50;;;;;;;5.55;1.60;;;;;;;9.47;nan;100164.41;4985801;28;20049;-86
2022/12/24 03:18:23;;;;;;;7.57;2.03;;;;;;;9.54;nan;100160.19;4985189;28;20038;-87
2022/12/24 03:21:05;;;;;;;7.57;1.75;;;;;;;9.62;nan;100163.88;4984839;28;20069;-87
2022/12/24 03:23:30;;;;;;;9.38;2.08;;;;;;;9.63;nan;100147.03;4987040;28;21259;-87
2022/12/24 03:26:00;;;;;;;9.13;1.40;;;;;;;9.59;nan;100151.81;4988388;28;20038;-87
2022/12/24 03:28:27;;;;;;;7.07;1.95;;;;;;;9.56;nan;100149.47;4990085;28;20106;-87
2022/12/24 03:30:52;;;;;;;5.72;1.48;;;;;;;9.59;nan;100145.69;4981371;28;20447;-87
2022/12/24 03:33:18;;;;;;;6.60;1.67;;;;;;;9.62;nan;100155.94;4988206;28;20038;-87
2022/12/24 03:35:44;;;;;;;7.88;1.88;;;;;;;9.66;nan;100158.13;4982806;28;20034;-87
2022/12/24 03:38:09;;;;;;;4.93;1.70;;;;;;;9.71;nan;100163.75;4982689;28;20054;-87
2022/12/24 03:40:34;;;;;;;4.05;1.45;;;;;;;9.74;nan;100159.97;4987421;28;20037;-86
2022/12/24 03:43:00;;;;;;;13.57;2.70;;;;;;;9.77;nan;100155.22;4989755;28;20034;-86
2022/12/24 03:45:25;;;;;;;6.30;1.80;;;;;;;9.77;nan;100155.22;4989362;28;20050;-86
2022/12/24 03:47:50;;;;;;;4.03;1.45;;;;;;;9.78;nan;100162.16;4986606;28;20035;-87
2022/12/24 03:50:15;;;;;;;4.93;1.42;;;;;;;9.78;nan;100162.16;4988210;28;20516;-87
2022/12/24 03:52:41;;;;;;;6.40;1.92;;;;;;;9.81;nan;100153.09;4989265;28;20031;-86
2022/12/24 03:55:06;;;;;;;6.20;1.70;;;;;;;9.81;nan;100142.53;4989832;28;20120;-87
2022/12/24 03:57:32;;;;;;;4.22;1.30;;;;;;;9.79;nan;100142.66;4989017;28;20062;-87
2022/12/24 03:59:57;;;;;;;6.13;1.55;;;;;;;9.79;nan;100155.06;4986741;28;20074;-86
2022/12/24 04:02:22;;;;;;;9.07;2.60;;;;;;;9.73;nan;100172.34;4985146;28;20105;-86
2022/12/24 04:04:47;;;;;;;8.05;1.80;;;;;;;9.73;nan;100172.34;4988264;28;20049;-87
2022/12/24 04:07:13;;;;;;;6.30;1.77;;;;;;;9.68;nan;100173.81;4990507;28;20049;-86
2022/12/24 04:09:39;;;;;;;5.47;1.45;;;;;;;9.65;nan;100171.47;4991651;28;20049;-87
2022/12/24 04:12:05;;;;;;;6.60;1.80;;;;;;;9.62;nan;100174.41;4986491;28;20039;-87
2022/12/24 04:14:30;;;;;;;9.38;2.15;;;;;;;9.59;nan;100180.00;4986187;28;20399;-87
2022/12/24 04:16:55;;;;;;;7.47;1.67;;;;;;;9.57;nan;100178.34;4986471;28;20031;-87
2022/12/24 04:19:20;;;;;;;10.57;1.88;;;;;;;9.57;nan;100178.34;4983348;28;20043;-87
2022/12/24 04:21:46;;;;;;;9.80;1.90;;;;;;;9.60;nan;100171.09;4981750;28;20034;-87
2022/12/24 04:24:11;;;;;;;7.53;2.05;;;;;;;9.60;nan;100177.19;4987084;28;20117;-87
2022/12/24 04:26:36;;;;;;;7.85;2.10;;;;;;;9.65;nan;100189.94;4982056;28;20440;-86
2022/12/24 04:29:01;;;;;;;6.27;1.83;;;;;;;9.69;nan;100188.66;4990974;28;20374;-86
2022/12/24 04:31:27;;;;;;;8.63;1.77;;;;;;;9.71;nan;100191.97;4990804;28;20273;-86
2022/12/24 04:33:52;;;;;;;8.75;2.58;;;;;;;9.73;nan;100193.47;4981425;28;20033;-87
2022/12/24 04:36:18;;;;;;;9.68;2.22;;;;;;;9.75;nan;100195.97;4990279;28;20500;-87
2022/12/24 04:38:46;;;;;;;13.00;2.50;;;;;;;9.77;nan;100204.53;4990792;28;20034;-85
2022/12/24 04:41:18;;;;;;;8.38;2.30;;;;;;;9.82;nan;100199.66;4989780;28;20049;-86
2022/12/24 04:43:43;;;;;;;15.18;2.42;;;;;;;9.83;nan;100196.03;4979214;28;20044;-86
2022/12/24 04:46:13;;;;;;;9.27;1.92;;;;;;;9.85;nan;100198.50;4987578;28;20593;-86
2022/12/24 04:48:39;;;;;;;7.15;1.80;;;;;;;9.86;nan;100206.25;4986906;28;20034;-86
2022/12/24 04:51:06;;;;;;;6.97;1.98;;;;;;;9.86;nan;100200.16;4988091;28;20035;-86
2022/12/24 04:53:32;;;;;;;8.88;2.10;;;;;;;9.85;nan;100201.16;4990419;28;20047;-86
2022/12/24 04:55:58;;;;;;;11.32;2.70;;;;;;;9.85;nan;100207.25;4991106;28;20039;-86
2022/12/24 04:58:23;;;;;;;9.10;2.60;;;;;;;9.86;nan;100219.47;4990977;28;20034;-86
2022/12/24 05:00:49;;;;;;;10.35;2.30;;;;;;;9.85;nan;100209.91;4990646;28;20037;-86
2022/12/24 05:03:14;;;;;;;17.00;2.83;;;;;;;9.84;nan;100200.31;4984639;28;20035;-86
2022/12/24 05:05:39;;;;;;;9.70;2.60;;;;;;;9.82;nan;100199.66;4994413;28;20034;-86
2022/12/24 05:08:05;;;;;;;8.45;1.80;;;;;;;9.79;nan;100199.94;4990238;28;20045;-86
2022/12/24 05:10:30;;;;;;;8.02;2.13;;;;;;;9.79;nan;100205.22;4990149;28;20042;-86
2022/12/24 05:12:55;;;;;;;7.50;1.92;;;;;;;9.76;nan;100205.53;4984527;28;20034;-86
2022/12/24 05:15:21;;;;;;;9.13;2.33;;;;;;;9.72;nan;100202.38;4992936;28;20034;-86
2022/12/24 05:17:47;;;;;;;11.25;2.28;;;;;;;9.68;nan;100200.22;4984705;28;20473;-86
2022/12/24 05:20:12;;;;;;;12.00;2.45;;;;;;;9.62;nan;100206.91;4987502;28;20050;-86
2022/12/24 05:28:06;;;;;;;12.20;3.22;;;;;;;9.45;nan;100205.97;4996480;28;20038;-87
2022/12/24 05:30:31;;;;;;;10.20;2.50;;;;;;;9.42;nan;100214.19;4993959;28;20042;-86
2022/12/24 05:32:57;;;;;;;9.32;2.30;;;;;;;9.38;nan;100212.84;4985824;28;20634;-85
2022/12/24 05:35:22;;;;;;;13.18;3.00;;;;;;;9.35;nan;100206.06;4990324;28;21469;-85
2022/12/24 05:37:47;;;;;;;12.45;2.90;;;;;;;9.38;nan;100209.38;4988733;28;20053;-86
2022/12/24 05:40:12;;;;;;;12.50;3.38;;;;;;;9.38;nan;100210.19;4994688;28;20122;-85
2022/12/24 05:42:38;;;;;;;12.75;3.15;;;;;;;9.40;nan;100212.69;4992819;28;20034;-86
2022/12/24 05:45:03;;;;;;;11.10;2.88;;;;;;;9.40;nan;100220.59;4994821;28;20046;-85
2022/12/24 05:47:29;;;;;;;12.23;2.92;;;;;;;9.40;nan;100232.00;4992512;28;20030;-86
2022/12/24 05:49:54;;;;;;;10.90;2.95;;;;;;;9.46;nan;100226.13;4994011;28;20039;-86
2022/12/24 05:52:19;;;;;;;14.93;3.55;;;;;;;9.50;nan;100232.72;4990396;28;20039;-86
2022/12/24 05:54:45;;;;;;;15.48;2.85;;;;;;;9.51;nan;100226.47;4993359;28;20393;-86
2022/12/24 05:57:10;;;;;;;11.98;2.70;;;;;;;9.53;nan;100229.81;4992037;28;20038;-86
2022/12/24 05:59:35;;;;;;;13.65;3.20;;;;;;;9.52;nan;100233.41;4995149;28;20041;-86
2022/12/24 06:02:00;;;;;;;15.45;3.65;;;;;;;9.51;nan;100229.13;4991414;28;20030;-86
2022/12/24 06:04:26;;;;;;;11.63;2.97;;;;;;;9.51;nan;100230.91;4990266;28;20081;-85
2022/12/24 06:06:51;;;;;;;17.88;3.55;;;;;;;9.48;nan;100224.13;4984964;28;20050;-86
2022/12/24 06:09:16;;;;;;;11.63;2.80;;;;;;;9.46;nan;100234.03;4992665;28;20043;-86
2022/12/24 06:11:42;;;;;;;15.55;3.35;;;;;;;9.45;nan;100235.00;4994883;28;20066;-85
2022/12/24 06:14:07;;;;;;;13.35;3.35;;;;;;;9.45;nan;100237.63;4997440;28;20091;-86
2022/12/24 06:16:32;;;;;;;14.75;3.10;;;;;;;9.45;nan;100236.81;4998038;28;20089;-86
2022/12/24 06:18:57;;;;;;;13.27;2.88;;;;;;;9.42;nan;100237.94;4998791;28;20093;-85
2022/12/24 06:21:23;;;;;;;13.73;3.20;;;;;;;9.40;nan;100245.19;4997456;28;20471;-85
2022/12/24 06:23:49;;;;;;;12.15;3.00;;;;;;;9.38;nan;100241.84;4998808;28;20031;-85
2022/12/24 06:26:18;;;;;;;16.17;4.05;;;;;;;9.40;nan;100247.81;4995691;28;20031;-84
2022/12/24 06:28:45;;;;;;;16.60;3.70;;;;;;;9.41;nan;100246.00;4993927;28;20035;-85
2022/12/24 06:31:13;;;;;;;15.65;3.50;;;;;;;9.36;nan;100254.38;4996222;28;20043;-85
2022/12/24 06:33:39;;;;;;;15.75;3.33;;;;;;;9.34;nan;100259.81;4996592;28;20439;-85
2022/12/24 06:36:09;;;;;;;13.02;3.90;;;;;;;9.33;nan;100259.97;5002395;28;20042;-85
2022/12/24 06:38:34;;;;;;;13.05;3.42;;;;;;;9.36;nan;100265.75;4999372;28;20054;-85
2022/12/24 06:41:05;;;;;;;12.70;3.90;;;;;;;9.36;nan;100260.47;4993450;28;20057;-85
2022/12/24 06:43:30;;;;;;;15.15;3.13;;;;;;;9.41;nan;100260.03;4997370;28;20038;-85
2022/12/24 06:45:55;;;;;;;19.13;3.70;;;;;;;9.44;nan;100269.44;4998019;28;20057;-85
2022/12/24 06:48:21;;;;;;;16.40;3.75;;;;;;;9.45;nan;100268.47;5004292;28;20043;-85
2022/12/24 06:50:46;;;;;;;12.38;3.28;;;;;;;9.49;nan;100272.50;5004039;28;20102;-85
2022/12/24 06:53:12;;;;;;;14.25;3.83;;;;;;;9.51;nan;100279.28;5003214;28;20059;-85
2022/12/24 06:55:38;;;;;;;17.10;4.20;;;;;;;9.54;nan;100275.50;5012000;28;20038;-85
2022/12/24 06:58:03;;;;;;;15.25;3.25;;;;;;;9.57;nan;100268.09;5010998;28;20043;-86
2022/12/24 07:00:29;;;;;;;19.05;3.78;;;;;;;9.64;nan;100278.88;5009656;28;20049;-85
2022/12/24 07:02:54;;;;;;;18.30;4.82;;;;;;;9.66;nan;100279.56;5014620;28;20034;-86
2022/12/24 07:05:20;;;;;;;14.82;4.03;;;;;;;9.72;nan;100291.31;4998021;28;20043;-86
2022/12/24 07:07:45;;;;;;;17.77;4.63;;;;;;;9.76;nan;100300.59;5027257;28;20038;-84
2022/12/24 07:10:13;;;;;;;15.60;3.65;;;;;;;9.79;nan;100301.13;5011647;28;20072;-85
2022/12/24 07:12:39;;;;;;;14.25;4.20;;;;;;;9.81;nan;100306.25;5009327;28;20035;-85
2022/12/24 07:15:04;;;;;;;14.77;3.53;;;;;;;9.83;nan;100306.09;5010727;28;20038;-87
2022/12/24 07:17:29;;;;;;;18.73;4.20;;;;;;;9.84;nan;100308.56;5004414;28;20054;-86
2022/12/24 07:19:55;;;;;;;14.18;3.95;;;;;;;9.83;nan;100303.47;5003210;28;20042;-85
2022/12/24 07:22:20;;;;;;;19.48;4.25;;;;;;;9.82;nan;100304.44;5005981;28;20060;-85
2022/12/24 07:24:45;;;;;;;14.27;3.38;;;;;;;9.80;nan;100307.25;5022156;28;20057;-86
2022/12/24 07:27:11;;;;;;;19.70;4.22;;;;;;;9.82;nan;100312.34;5007690;28;20057;-85
2022/12/24 07:29:36;;;;;;;17.45;4.18;;;;;;;9.80;nan;100304.59;4998015;28;20038;-85
2022/12/24 07:32:01;;;;;;;16.77;4.03;;;;;;;9.81;nan;100318.63;5005598;28;20049;-86
2022/12/24 07:34:27;;;;;;;13.60;3.78;;;;;;;9.81;nan;100318.63;5003236;28;20030;-85
2022/12/24 07:36:52;;;;;;;10.20;3.35;;;;;;;9.84;nan;100320.97;5016591;28;20034;-86
2022/12/24 07:39:17;;;;;;;14.10;3.42;;;;;;;9.84;nan;100323.59;4999723;28;20061;-86
2022/12/24 07:41:42;;;;;;;14.10;3.83;;;;;;;9.85;nan;100322.63;4998046;28;20050;-87
2022/12/24 07:44:14;;;;;;;12.05;3.15;;;;;;;9.84;nan;100324.41;4997339;28;20031;-86
2022/12/24 07:46:40;;;;;;;13.75;3.50;;;;;;;9.85;nan;100331.38;4998160;28;20031;-87
2022/12/24 07:49:05;;;;;;;13.57;3.60;;;;;;;9.84;nan;100340.28;4997420;28;20031;-86
2022/12/24 07:51:30;;;;;;;16.30;3.45;;;;;;;9.85;nan;100331.38;4997100;28;20045;-86
2022/12/24 07:53:56;;;;;;;15.20;4.25;;;;;;;9.86;nan;100333.03;4997829;28;20142;-85
2022/12/24 07:56:21;;;;;;;12.10;3.13;;;;;;;9.90;nan;100338.84;4997434;28;20716;-87
2022/12/24 07:58:46;;;;;;;15.50;3.67;;;;;;;9.89;nan;100337.19;4998665;28;20627;-85
2022/12/24 08:01:12;;;;;;;15.60;3.60;;;;;;;9.92;nan;100337.72;4998374;28;20057;-87
2022/12/24 08:03:37;;;;;;;13.70;3.42;;;;;;;9.95;nan;100339.22;4999208;28;20076;-85
2022/12/24 08:06:03;;;;;;;19.30;3.95;;;;;;;9.99;nan;100346.69;4998838;28;20052;-86
2022/12/24 08:08:28;;;;;;;16.02;3.60;;;;;;;10.03;nan;100344.56;4999942;28;20054;-86
2022/12/24 08:11:00;;;;;;;16.65;3.92;;;;;;;10.04;nan;100348.88;4999328;28;20038;-86
2022/12/24 08:13:25;;;;;;;15.10;3.97;;;;;;;10.05;nan;100350.53;4998841;28;20034;-87
2022/12/24 08:15:50;;;;;;;13.98;3.50;;;;;;;10.09;nan;100357.16;4999625;28;20046;-85
2022/12/24 08:18:15;;;;;;;18.88;3.67;;;;;;;10.11;nan;100351.75;4998070;28;20064;-86
2022/12/24 08:20:41;;;;;;;15.10;3.90;;;;;;;10.14;nan;100354.06;5014156;28;20045;-85
2022/12/24 08:23:07;;;;;;;16.83;3.60;;;;;;;10.14;nan;100354.91;5001986;28;20038;-86
2022/12/24 08:25:34;;;;;;;16.40;3.78;;;;;;;10.16;nan;100358.22;5000111;28;20030;-85
2022/12/24 08:27:59;;;;;;;14.60;3.38;;;;;;;10.20;nan;100371.94;4998834;28;20034;-86
2022/12/24 08:30:25;;;;;;;16.38;4.25;;;;;;;10.18;nan;100366.81;4991948;28;20089;-86
2022/12/24 08:32:51;;;;;;;15.77;3.42;;;;;;;10.20;nan;100369.28;4990520;28;20319;-86
2022/12/24 08:35:16;;;;;;;16.98;4.30;;;;;;;10.21;nan;100368.31;4989215;28;20495;-85
2022/12/24 08:37:42;;;;;;;16.73;3.83;;;;;;;10.20;nan;100364.88;4989033;28;20034;-86
2022/12/24 08:40:08;;;;;;;10.27;2.90;;;;;;;10.20;nan;100359.59;4988716;28;20034;-86
2022/12/24 08:42:33;;;;;;;13.40;3.47;;;;;;;10.21;nan;100360.41;4990656;28;20081;-85
2022/12/24 08:44:59;;;;;;;20.00;4.03;;;;;;;10.24;nan;100362.72;4985837;28;20042;-87
2022/12/24 08:47:24;;;;;;;13.77;3.30;;;;;;;10.26;nan;100371.34;4984934;28;20030;-87
2022/12/24 08:49:49;;;;;;;14.80;3.58;;;;;;;10.34;nan;100367.94;4986001;28;20640;-86
2022/12/24 08:52:15;;;;;;;18.00;3.97;;;;;;;10.36;nan;100376.56;4988225;28;20612;-87
2022/12/24 08:54:40;;;;;;;12.07;3.38;;;;;;;10.44;nan;100360.78;4991538;28;20034;-87
2022/12/24 08:57:05;;;;;;;13.80;3.15;;;;;;;10.51;nan;100371.53;4986671;28;20035;-85
2022/12/24 08:59:31;;;;;;;14.48;3.97;;;;;;;10.58;nan;100373.44;4988755;28;20516;-85
2022/12/24 09:01:56;;;;;;;19.23;3.88;;;;;;;10.70;nan;100379.28;4992940;28;20615;-86
2022/12/24 09:04:21;;;;;;;13.20;2.92;;;;;;;10.76;nan;100377.81;4988504;28;20046;-86
2022/12/24 09:06:47;;;;;;;19.77;4.18;;;;;;;10.92;nan;100374.44;4993065;28;20221;-86
2022/12/24 09:09:12;;;;;;;14.52;3.88;;;;;;;11.05;nan;100391.53;4999787;28;20117;-86
2022/12/24 09:11:37;;;;;;;16.92;3.58;;;;;;;11.19;nan;100400.69;4984946;28;20046;-86
2022/12/24 09:14:03;;;;;;;15.25;3.95;;;;;;;11.33;nan;100396.59;4990360;28;20095;-86
2022/12/24 09:16:28;;;;;;;17.35;4.07;;;;;;;11.41;nan;100401.91;4992111;28;20041;-86
2022/12/24 09:18:53;;;;;;;20.58;3.85;;;;;;;11.44;nan;100411.38;4983766;28;20038;-86
2022/12/24 09:21:18;;;;;;;17.17;4.07;;;;;;;11.50;nan;100413.38;4991793;28;20172;-85
2022/12/24 09:23:46;;;;;;;12.27;2.88;;;;;;;11.69;nan;100415.75;4989907;28;20057;-86
2022/12/24 09:26:23;;;;;;;17.83;3.70;;;;;;;11.81;nan;100418.94;4990353;28;20497;-86
2022/12/24 09:28:50;;;;;;;15.73;3.83;;;;;;;11.90;nan;100422.47;4988565;28;20501;-86
2022/12/24 09:31:16;;;;;;;13.93;3.90;;;;;;;11.83;nan;100422.25;4993531;28;20038;-86
2022/12/24 09:33:43;;;;;;;16.70;3.60;;;;;;;11.74;nan;100428.50;4993756;28;20177;-86
2022/12/24 09:36:08;;;;;;;13.70;3.60;;;;;;;11.72;nan;100432.31;4993930;28;20057;-86
2022/12/24 09:38:35;;;;;;;15.52;4.15;;;;;;;11.64;nan;100430.47;4986198;28;20026;-86
2022/12/24 09:41:09;;;;;;;14.63;3.63;;;;;;;11.58;nan;100442.53;4988200;28;20034;-86
2022/12/24 09:43:36;;;;;;;14.48;3.08;;;;;;;11.61;nan;100452.00;4996511;28;20040;-86
2022/12/24 09:46:23;;;;;;;14.43;3.90;;;;;;;11.62;nan;100454.47;4990167;28;20045;-86
2022/12/24 09:48:54;;;;;;;20.25;3.42;;;;;;;11.59;nan;100449.50;4989660;28;20108;-87
2022/12/24 09:51:37;;;;;;;14.25;3.35;;;;;;;11.56;nan;100459.56;4982825;28;20039;-87
2022/12/24 09:54:10;;;;;;;15.65;3.55;;;;;;;11.56;nan;100463.06;4988857;28;20034;-87
2022/12/24 09:56:42;;;;;;;12.65;3.80;;;;;;;11.63;nan;100460.59;4990561;28;20074;-87
2022/12/24 09:59:14;;;;;;;16.98;3.83;;;;;;;11.72;nan;100475.53;4988729;28;20034;-87
2022/12/24 10:01:39;;;;;;;16.80;3.22;;;;;;;11.77;nan;100469.75;4981764;28;20118;-86
2022/12/24 10:04:17;;;;;;;13.68;3.45;;;;;;;11.84;nan;100468.09;4992741;28;20511;-86
2022/12/24 10:07:20;;;;;;;14.18;3.47;;;;;;;11.84;nan;100463.63;4992234;28;20035;-86
2022/12/24 10:10:00;;;;;;;16.88;3.97;;;;;;;11.85;nan;100465.31;4992192;28;20100;-87
2022/12/24 10:12:44;;;;;;;20.57;4.00;;;;;;;11.98;nan;100472.81;4985942;28;20035;-86
2022/12/24 10:15:21;;;;;;;13.90;3.75;;;;;;;12.14;nan;100482.63;4994249;28;20049;-87
2022/12/24 10:17:56;;;;;;;10.80;3.08;;;;;;;12.25;nan;100474.38;4994347;28;20042;-87
2022/12/24 10:20:28;;;;;;;13.95;3.72;;;;;;;12.29;nan;100480.97;4995476;28;20030;-86
2022/12/24 10:23:10;;;;;;;13.90;3.90;;;;;;;12.31;nan;100480.81;4993039;28;20570;-87
2022/12/24 10:25:42;;;;;;;12.02;3.50;;;;;;;12.28;nan;100486.47;4991924;28;20042;-87
2022/12/24 10:28:22;;;;;;;16.65;3.58;;;;;;;12.26;nan;100494.56;4991927;28;20038;-86
2022/12/24 10:30:52;;;;;;;13.93;3.97;;;;;;;12.25;nan;100482.31;4992313;28;20034;-85
2022/12/24 10:33:26;;;;;;;15.05;3.60;;;;;;;12.26;nan;100475.19;4991998;28;20037;-87
2022/12/24 10:35:55;;;;;;;14.25;3.50;;;;;;;12.29;nan;100480.16;4988314;28;20050;-86
2022/12/24 10:38:20;;;;;;;12.65;3.03;;;;;;;12.29;nan;100483.63;4978518;28;20031;-86
2022/12/24 10:40:50;;;;;;;15.75;3.35;;;;;;;12.25;nan;100486.78;4991025;28;20065;-87
2022/12/24 10:43:20;;;;;;;10.95;3.33;;;;;;;12.18;nan;100475.16;4987089;28;20069;-87
2022/12/24 10:46:02;;;;;;;14.90;3.35;;;;;;;12.14;nan;100476.50;4991659;28;20520;-87
2022/12/24 10:48:42;;;;;;;20.88;4.25;;;;;;;12.15;nan;100473.66;4983393;28;20042;-86
2022/12/24 10:51:17;;;;;;;13.43;3.28;;;;;;;12.21;nan;100466.91;4982236;28;20039;-87
2022/12/24 10:53:53;;;;;;;19.35;4.38;;;;;;;12.35;nan;100468.91;5001433;28;20217;-86
2022/12/24 10:56:20;;;;;;;12.98;2.90;;;;;;;12.45;nan;100474.03;4987762;28;20026;-87
2022/12/24 10:58:52;;;;;;;15.35;4.40;;;;;;;12.49;nan;100468.25;4991521;28;20031;-87
2022/12/24 11:01:17;;;;;;;16.58;4.25;;;;;;;12.56;nan;100480.81;5015136;28;20185;-88
2022/12/24 11:03:42;;;;;;;13.60;3.83;;;;;;;12.68;nan;100490.97;4993719;28;20035;-87
2022/12/24 11:06:14;;;;;;;12.10;3.40;;;;;;;12.72;nan;100475.53;4983616;28;20041;-87
2022/12/24 11:08:41;;;;;;;;;;;;;;;12.71;nan;100473.88;4993477;28;20039;-87
2022/12/24 11:11:13;;;;;;;15.85;4.03;;;;;;;12.81;nan;100474.53;4997719;28;19921;-88
2022/12/24 11:13:52;;;;;;;12.20;3.53;;;;;;;12.92;nan;100466.22;4992821;28;20412;-87
2022/12/24 11:16:35;;;;;;;13.55;3.83;;;;;;;12.95;nan;100462.41;4993232;28;20051;-87
2022/12/24 11:19:02;;;;;;;19.42;4.18;;;;;;;13.03;nan;100469.50;5002675;28;20728;-87
2022/12/24 11:21:31;;;;;;;11.23;3.00;;;;;;;13.01;nan;100469.69;4990936;28;20038;-87
2022/12/24 11:24:00;;;;;;;13.63;3.53;;;;;;;13.00;nan;100472.50;4989372;28;20161;-87
2022/12/24 11:26:29;;;;;;;14.15;4.28;;;;;;;12.93;nan;100475.84;4989222;28;20381;-87
2022/12/24 11:29:23;;;;;;;9.20;2.95;;;;;;;12.95;nan;100481.81;4987142;28;20046;-87
2022/12/24 11:31:51;;;;;;;9.23;2.58;;;;;;;13.01;nan;100480.28;4989090;28;20046;-87
2022/12/24 11:34:31;;;;;;;13.15;2.70;;;;;;;13.02;nan;100470.53;4989214;28;20105;-88
2022/12/24 11:37:26;;;;;;;16.73;4.25;;;;;;;12.88;nan;100472.84;5004393;28;20161;-87
2022/12/24 11:40:00;;;;;;;11.43;2.90;;;;;;;12.78;nan;100472.22;4980653;28;20105;-88
2022/12/24 11:42:33;;;;;;;12.80;3.65;;;;;;;12.71;nan;100469.41;4996403;28;20042;-87
2022/12/24 11:45:02;;;;;;;12.07;3.10;;;;;;;12.70;nan;100467.75;4985222;28;20130;-87
2022/12/24 11:47:39;;;;;;;11.93;2.97;;;;;;;12.65;nan;100483.31;4990050;28;20318;-87
2022/12/24 11:50:28;;;;;;;13.13;3.03;;;;;;;12.64;nan;100475.53;5004139;28;20034;-87
2022/12/24 11:53:11;;;;;;;9.82;2.70;;;;;;;12.62;nan;100477.53;4983359;28;20133;-87
2022/12/24 11:55:41;;;;;;;13.32;3.40;;;;;;;12.57;nan;100477.19;5002231;28;20026;-88
2022/12/24 11:58:32;;;;;;;11.77;3.22;;;;;;;12.48;nan;100474.53;4988405;28;20042;-87
2022/12/24 12:01:19;;;;;;;9.50;2.45;;;;;;;12.44;nan;100478.53;5003231;28;20100;-87
2022/12/24 12:03:48;;;;;;;8.27;2.63;;;;;;;12.42;nan;100464.59;4975683;28;20038;-87